Home > Products > Valid Products > MTR

000
SAUS45 KPIH 210752
MTRSNT
METAR KSNT 210751Z AUTO 35006KT 08/03 A2985 RMK AO1 SLP022 T00780033





000
SAUS45 KPIH 210652
MTRSNT
METAR KSNT 210651Z AUTO 14003KT 07/03 A2986 RMK AO1 SLP034 T00670028
402061044





000
SAUS45 KPIH 210552
MTRSNT
METAR KSNT 210551Z AUTO 16006KT 09/04 A2988 RMK AO1 SLP052 60001
T00890039 10156 20083 58008





000
SAUS45 KPIH 210452
MTRSNT
METAR KSNT 210451Z AUTO 12008KT 09/05 A2993 RMK AO1 SLP079 P0001
T00940050





000
SAUS45 KPIH 210452
MTRSNT
METAR KSNT 210451Z AUTO 12008KT 09/05 A2993 RMK AO1 SLP079 P0001
T00940050





000
SAUS45 KPIH 210352
MTRSNT
METAR KSNT 210351Z AUTO 17005KT 11/02 A2990 RMK AO1 SLP079 T01110017





000
SAUS45 KPIH 210352
MTRSNT
METAR KSNT 210351Z AUTO 17005KT 11/02 A2990 RMK AO1 SLP079 T01110017





000
SAUS45 KPIH 210252
MTRSNT
METAR KSNT 210251Z AUTO 00000KT 10/03 A2991 RMK AO1 SLP086 T01000028
58009





000
SAUS45 KPIH 210252
MTRSNT
METAR KSNT 210251Z AUTO 00000KT 10/03 A2991 RMK AO1 SLP086 T01000028
58009





000
SAUS45 KPIH 210152
MTRSNT
METAR KSNT 210151Z AUTO 16006KT 09/00 A2993 RMK AO1 SLP101 T00940000





000
SAUS45 KPIH 210152
MTRSNT
METAR KSNT 210151Z AUTO 16006KT 09/00 A2993 RMK AO1 SLP101 T00940000





000
SAUS45 KPIH 210052
MTRSNT
METAR KSNT 210051Z AUTO 15004KT 13/M01 A2993 RMK AO1 SLP090
T01331006





000
SAUS45 KPIH 202352
MTRSNT
METAR KSNT 202351Z AUTO 18004KT 16/M02 A2994 RMK AO1 SLP086
T01561022 10206 20094 58003





000
SAUS45 KPIH 202252
MTRSNT
METAR KSNT 202251Z AUTO 19007KT 18/M03 A2995 RMK AO1 SLP087
T01781028





000
SAUS45 KPIH 202252
MTRSNT
METAR KSNT 202251Z AUTO 19007KT 18/M03 A2995 RMK AO1 SLP087
T01781028





000
SAUS45 KPIH 202152
MTRSNT
METAR KSNT 202151Z AUTO 17011G20KT 18/M03 A2995 RMK AO1 SLP083
T01831033





000
SAUS45 KPIH 202152
MTRSNT
METAR KSNT 202151Z AUTO 17011G20KT 18/M03 A2995 RMK AO1 SLP083
T01831033





000
SAUS45 KPIH 202052
MTRSNT
METAR KSNT 202051Z AUTO 16012G22KT 20/M02 A2995 RMK AO1 SLP080
T02001022 56023





000
SAUS45 KPIH 201952
MTRSNT
METAR KSNT 201951Z AUTO 16009G19KT 140V210 20/M02 A2997 RMK AO1
SLP085 T02001022





000
SAUS45 KPIH 201852
MTRSNT
METAR KSNT 201851Z AUTO 00000KT 17/00 A3000 RMK AO1 SLP099 T01670000





000
SAUS45 KPIH 201752
MTRSNT
METAR KSNT 201751Z AUTO 34003KT 09/M02 A3004 RMK AO1 SLP120
T00941017 10094 21044 58013





000
SAUS45 KPIH 201652
MTRSNT
METAR KSNT 201651Z AUTO 00000KT 05/M02 A3006 RMK AO1 SLP140
T00501022





000
SAUS45 KPIH 201552
MTRSNT
METAR KSNT 201551Z AUTO 00000KT 00/M03 A3008 RMK AO1 SLP154
T00001033





000
SAUS45 KPIH 201452
MTRSNT
METAR KSNT 201451Z AUTO 00000KT M02/M04 A3008 RMK AO1 SLP155
T10171044 55001





000
SAUS45 KPIH 201352
MTRSNT
METAR KSNT 201351Z AUTO 00000KT M04/M06 A3007 RMK AO1 SLP158
T10391061





000
SAUS45 KPIH 201252
MTRSNT
METAR KSNT 201251Z AUTO 00000KT M03/M06 A3008 RMK AO1 SLP155
T10331056





000
SAUS45 KPIH 201152
MTRSNT
METAR KSNT 201151Z AUTO 00000KT M03/M05 A3008 RMK AO1 SLP132
T10281050 10044 21033 55003





000
SAUS45 KPIH 201052
MTRSNT
METAR KSNT 201051Z AUTO 00000KT M03/M05 A3008 RMK AO1 SLP128
T10281050





000
SAUS45 KPIH 200952
MTRSNT
METAR KSNT 200951Z AUTO 18003KT M02/M05 A3009 RMK AO1 SLP129
T10221050





000
SAUS45 KPIH 200952
MTRSNT
METAR KSNT 200951Z AUTO 18003KT M02/M05 A3009 RMK AO1 SLP129
T10221050





000
SAUS45 KPIH 200852
MTRSNT
METAR KSNT 200851Z AUTO 17003KT M02/M05 A3009 RMK AO1 SLP132
T10221050 56001





000
SAUS45 KPIH 200752
MTRSNT
METAR KSNT 200751Z AUTO 00000KT M01/M05 A3009 RMK AO1 SLP138
T10111050





000
SAUS45 KPIH 200752
MTRSNT
METAR KSNT 200751Z AUTO 00000KT M01/M05 A3009 RMK AO1 SLP138
T10111050





000
SAUS45 KPIH 200652
MTRSNT
METAR KSNT 200651Z AUTO 00000KT 00/M04 A3010 RMK AO1 SLP145
T00001044 402061067





000
SAUS45 KPIH 200552
MTRSNT
METAR KSNT 200551Z AUTO 18003KT 04/M04 A3010 RMK AO1 SLP148
T00391039 10178 20028 53001





000
SAUS45 KPIH 200452
MTRSNT
METAR KSNT 200451Z AUTO 14006KT 04/M03 A3009 RMK AO1 SLP155
T00391033





000
SAUS45 KPIH 200352
MTRSNT
METAR KSNT 200351Z AUTO 16004KT 05/M04 A3010 RMK AO1 SLP164
T00501039





000
SAUS45 KPIH 200252
MTRSNT
METAR KSNT 200251Z AUTO 12005KT 07/M04 A3009 RMK AO1 SLP166
T00721044 51005





000
SAUS45 KPIH 200152
MTRSNT
METAR KSNT 200151Z AUTO 14005KT 07/M04 A3009 RMK AO1 SLP171
T00671039





000
SAUS45 KPIH 200053 COR
MTRSNT
METAR KSNT 200051Z AUTO 17006KT 09/M04 A3008 RMK AO1 SLP161
T00891039





000
SAUS45 KPIH 192352
MTRSNT
METAR KSNT 192351Z AUTO 21005KT 18/M08 A3008 RMK AO1 SLP134
T01781083 10206 20072 56005





000
SAUS45 KPIH 192352
MTRSNT
METAR KSNT 192351Z AUTO 21005KT 18/M08 A3008 RMK AO1 SLP134
T01781083 10206 20072 56005





000
SAUS45 KPIH 192252
MTRSNT
METAR KSNT 192251Z AUTO 17008KT 19/M08 A3008 RMK AO1 SLP132
T01941078





000
SAUS45 KPIH 192252
MTRSNT
METAR KSNT 192251Z AUTO 17008KT 19/M08 A3008 RMK AO1 SLP132
T01941078





000
SAUS45 KPIH 192152
MTRSNT
METAR KSNT 192151Z AUTO VRB06KT 19/M08 A3008 RMK AO1 SLP132
T01941083





000
SAUS45 KPIH 192052
MTRSNT
METAR KSNT 192051Z AUTO 00000KT 18/M02 A3009 RMK AO1 SLP136
T01831017 56025





000
SAUS45 KPIH 191952
MTRSNT
METAR KSNT 191951Z AUTO 35003KT 15/M01 A3012 RMK AO1 SLP147
T01501011





000
SAUS45 KPIH 191852
MTRSNT
METAR KSNT 191851Z AUTO VRB04KT 12/M01 A3016 RMK AO1 SLP169
T01171011





000
SAUS45 KPIH 191752
MTRSNT
METAR KSNT 191751Z AUTO 33004KT 07/M01 A3018 RMK AO1 SLP186
T00721011 10072 21067 58009





000
SAUS45 KPIH 191653 COR
MTRSNT
METAR KSNT 191651Z AUTO 00000KT 03/M02 A3021 RMK AO1 SLP203
T00331022





000
SAUS45 KPIH 191552
MTRSNT
METAR KSNT 191551Z AUTO 07003KT M01/M04 A3021 RMK AO1 SLP213
T10111044





000
SAUS45 KPIH 191452
MTRSNT
METAR KSNT 191451Z AUTO 00000KT M04/M07 A3022 RMK AO1 SLP221
T10441067 53007





000
SAUS45 KPIH 191352
MTRSNT
METAR KSNT 191351Z AUTO 00000KT M06/M08 A3020 RMK AO1 SLP212
T10611078





000
SAUS45 KPIH 191252
MTRSNT
METAR KSNT 191251Z AUTO 00000KT M06/M07 A3020 RMK AO1 SLP205
T10611072





000
SAUS45 KPIH 191152
MTRSNT
METAR KSNT 191151Z AUTO 00000KT M05/M07 A3019 RMK AO1 SLP181
T10501067 10000 21056 53001





000
SAUS45 KPIH 191052
MTRSNT
METAR KSNT 191051Z AUTO 00000KT M04/M06 A3018 RMK AO1 SLP172
T10441061





000
SAUS45 KPIH 190952
MTRSNT
METAR KSNT 190951Z AUTO 00000KT M04/M06 A3019 RMK AO1 SLP174
T10441056





000
SAUS45 KPIH 190952
MTRSNT
METAR KSNT 190951Z AUTO 00000KT M04/M06 A3019 RMK AO1 SLP174
T10441056





000
SAUS45 KPIH 190852
MTRSNT
METAR KSNT 190851Z AUTO 00000KT M03/M05 A3019 RMK AO1 SLP172
T10331050 53005





000
SAUS45 KPIH 190752
MTRSNT
METAR KSNT 190751Z AUTO 16004KT M01/M04 A3018 RMK AO1 SLP168
T10061039





000
SAUS45 KPIH 190652
MTRSNT
METAR KSNT 190651Z AUTO 16004KT M01/M04 A3017 RMK AO1 SLP169
T10111039 401831039





000
SAUS45 KPIH 190552
MTRSNT
METAR KSNT 190551Z AUTO 00000KT 00/M03 A3017 RMK AO1 SLP176
T00001033 10161 21011 50004





000
SAUS45 KPIH 190452
MTRSNT
METAR KSNT 190451Z AUTO 17003KT 01/M03 A3017 RMK AO1 SLP186
T00111028





000
SAUS45 KPIH 190452
MTRSNT
METAR KSNT 190451Z AUTO 17003KT 01/M03 A3017 RMK AO1 SLP186
T00111028





000
SAUS45 KPIH 190352
MTRSNT
METAR KSNT 190351Z AUTO 16004KT 02/M02 A3017 RMK AO1 SLP190
T00221022





000
SAUS45 KPIH 190352
MTRSNT
METAR KSNT 190351Z AUTO 16004KT 02/M02 A3017 RMK AO1 SLP190
T00221022





000
SAUS45 KPIH 190252
MTRSNT
METAR KSNT 190251Z AUTO 00000KT 03/M02 A3016 RMK AO1 SLP194
T00281022 53011





000
SAUS45 KPIH 190152
MTRSNT
METAR KSNT 190151Z AUTO 00000KT 06/M02 A3014 RMK AO1 SLP184
T00561022





000
SAUS45 KPIH 190052
MTRSNT
METAR KSNT 190051Z AUTO 20004KT 08/M02 A3013 RMK AO1 SLP172
T00831017





000
SAUS45 KPIH 182352
MTRSNT
METAR KSNT 182351Z AUTO 00000KT 16/M03 A3012 RMK AO1 SLP147
T01611028 10183 20094 55002





000
SAUS45 KPIH 182252
MTRSNT
METAR KSNT 182251Z AUTO 35007KT 18/M03 A3012 RMK AO1 SLP141
T01781028





000
SAUS45 KPIH 182152
MTRSNT
METAR KSNT 182151Z AUTO 05006KT 18/M03 A3012 RMK AO1 SLP140
T01781028





000
SAUS45 KPIH 182152
MTRSNT
METAR KSNT 182151Z AUTO 05006KT 18/M03 A3012 RMK AO1 SLP140
T01781028





000
SAUS45 KPIH 182052
MTRSNT
METAR KSNT 182051Z AUTO 35003KT 17/M03 A3013 RMK AO1 SLP139
T01721028 56015





000
SAUS45 KPIH 181952
MTRSNT
METAR KSNT 181951Z AUTO 33004KT 16/M02 A3014 RMK AO1 SLP145
T01561022





000
SAUS45 KPIH 181952
MTRSNT
METAR KSNT 181951Z AUTO 33004KT 16/M02 A3014 RMK AO1 SLP145
T01561022





000
SAUS45 KPIH 181852
MTRSNT
METAR KSNT 181851Z AUTO 31003KT 14/00 A3016 RMK AO1 SLP147 T01390000





000
SAUS45 KPIH 181753
MTRSNT
METAR KSNT 181751Z AUTO 01004KT 09/00 A3018 RMK AO1 SLP162 T00940000
10094 21039 58001





000
SAUS45 KPIH 181653 COR
MTRSNT
METAR KSNT 181651Z AUTO 00000KT 06/M01 A3019 RMK AO1 SLP172
T00561006





000
SAUS45 KPIH 181653 COR
MTRSNT
METAR KSNT 181651Z AUTO 00000KT 06/M01 A3019 RMK AO1 SLP172
T00561006





000
SAUS45 KPIH 181552
MTRSNT
METAR KSNT 181551Z AUTO 05003KT 02/M02 A3019 RMK AO1 SLP185
T00221022





000
SAUS45 KPIH 181552
MTRSNT
METAR KSNT 181551Z AUTO 05003KT 02/M02 A3019 RMK AO1 SLP185
T00221022





000
SAUS45 KPIH 181452
MTRSNT
METAR KSNT 181451Z AUTO 04004KT M02/M04 A3018 RMK AO1 SLP189
T10171039 53010





000
SAUS45 KPIH 181452
MTRSNT
METAR KSNT 181451Z AUTO 04004KT M02/M04 A3018 RMK AO1 SLP189
T10171039 53010





000
SAUS45 KPIH 181352
MTRSNT
METAR KSNT 181351Z AUTO 00000KT M04/M05 A3016 RMK AO1 SLP188
T10391050





000
SAUS45 KPIH 181252
MTRSNT
METAR KSNT 181251Z AUTO 17003KT M03/M04 A3015 RMK AO1 SLP180
T10331044





000
SAUS45 KPIH 181152
MTRSNT
METAR KSNT 181151Z AUTO 00000KT M02/M03 A3015 RMK AO1 SLP157
T10221033 10072 21022 53008





000
SAUS45 KPIH 181052
MTRSNT
METAR KSNT 181051Z AUTO 00000KT M02/M03 A3012 RMK AO1 SLP146
T10171033





000
SAUS45 KPIH 181052
MTRSNT
METAR KSNT 181051Z AUTO 00000KT M02/M03 A3012 RMK AO1 SLP146
T10171033





000
SAUS45 KPIH 180952
MTRSNT
METAR KSNT 180951Z AUTO 17003KT M01/M03 A3012 RMK AO1 SLP146
T10061028





000
SAUS45 KPIH 180952
MTRSNT
METAR KSNT 180951Z AUTO 17003KT M01/M03 A3012 RMK AO1 SLP146
T10061028





    US Dept of Commerce
    National Oceanic and Atmospheric Administration
    National Weather Service
    1325 East West Highway
    Silver Spring, MD 20910
    Page Author: NWS Internet Services Team
Disclaimer
Information Quality
Credits
Glossary
Privacy Policy
Freedom of Information Act (FOIA)
About Us
Career Opportunities